Etusivu
METAR-TAF:

METAR-TAF

Lentoasemat :

Wrangell, Alaska, Yhdysvallat

Leveyspiiri: 56-29N, Pituuspiiri: 132-22W, korkeus merenpinnasta: 13 m

Tämänhetkinen sää

Tämä raportti tehtiin 1 tunti ja 13 minuuttia sitten, kello 09.56 UTC
tyyntä
Lämpötila -7°C
Kosteus 73%
Ilmanpaine 1026 hPa
Näkyvyys: 16.1 km
selkeää

METAR: PAWG 200956Z AUTO 00000KT 10SM CLR M07/M11 A3029 RMK AO2 SLP260 T10721106 FZRANO TSNO

Aika: 02:09 (11:09 UTC)

Sääennuste

Tämä raportti tehtiin 5 tuntia ja 34 minuuttia sitten, kello 05.35 UTC
Ennuste voimassa 20. päivästä klo 06 UTC - 21. päivään klo 06 UTC
Tuuli 4 kn eri suunnista
Näkyvyys: 10 km
Muutamia pilviä 8000 ft:n korkeudessa
Hajonneita pilviä 15000 ft:n korkeudessa
From 20. päivästä klo 1900 UTC
Tuuli 5 kn lännestä/luoteesta
Näkyvyys: 10 km
Hajanaisia pilviä 15000 ft:n korkeudessa

TAF: PAWG 200535Z 2006/2106 VRB04KT P6SM FEW080 BKN150 FM201900 30005KT P6SM SCT150 AMD LTD TO CLD VIS AND WIND 2006/2015

Säähavainnot ja -ennusteet yli 4000 lentoasemalta (METAR- ja TAF-raportit).

Käytössä olevat sääasemat on merkitty karttaan keltaisilla ja punaisilla pisteillä.

Aseta hiiri pisteen päälle nähdäksesi sääaseman nimen.

Klikkaa sitten nähdäksesi säähavainnot ja -ennusteet.

Kartan vaihtaminen: klikkaa mustalla rastilla varustettuja vihreitä pisteitä, niin voit zoomata sisään; viivalla varustettua vihreää pistettä, niin voit zoomata ulos tai vihreitä nuolia, niin pääset viereisille kartoille.


METAR-TAF: